Terminal Aerodrome Forecast
Issued by NWS

Home | Current Version | Previous Version | Text Only | Print | Product List | Glossary On
Versions: 1 2 3 4 5 6 7 8 9 10 11 12 13 14 15 16 17 18 19
569
FTUS46 KSEW 192329
TAFOLM
TAF
KOLM 192329Z 2000/2024 33005KT P6SM SCT060 SCT200
     FM200500 VRB03KT P6SM FEW060 BKN200
     FM201200 19004KT P6SM SCT150 BKN200
     FM201900 20006KT P6SM SCT120 OVC150=

USA.gov is the U.S. government's official web portal to all federal, state and local government web resources and services.